Time;durP1;ratioP1;P1;durP2;ratioP2;P2;SDS_P1;SDS_P2;PMS_P1;PMS_P2;Temp;Humidity;BMP_temperature;BMP_pressure;BME280_temperature;BME280_humidity;BME280_pressure;Samples;Min_cycle;Max_cycle;Signal;HPM_P1;HPM_P2
2022/04/13 00:01:15;;;;;;;28.60;10.17;;;;;;;2.67;61.85;100736.59;4185394;28;20236;-64
2022/04/13 00:03:43;;;;;;;24.93;8.87;;;;;;;2.80;60.54;100731.47;4174300;28;25736;-65
2022/04/13 00:06:10;;;;;;;26.07;9.03;;;;;;;2.66;61.78;100723.53;4178851;28;20252;-61
2022/04/13 00:08:36;;;;;;;20.13;8.33;;;;;;;2.57;62.12;100724.91;4170926;28;20230;-64
2022/04/13 00:11:02;;;;;;;22.00;8.20;;;;;;;2.65;61.34;100722.72;4173605;28;21567;-62
2022/04/13 00:13:29;;;;;;;21.57;8.13;;;;;;;2.60;61.29;100730.00;4163444;28;20222;-63
2022/04/13 00:15:56;;;;;;;22.30;8.80;;;;;;;2.70;61.05;100735.59;4175500;28;20670;-63
2022/04/13 00:18:22;;;;;;;22.37;8.60;;;;;;;2.71;60.73;100732.00;4163326;28;20230;-64
2022/04/13 00:20:49;;;;;;;28.00;9.27;;;;;;;2.51;61.13;100731.38;4188707;28;20238;-63
2022/04/13 00:23:15;;;;;;;22.97;8.40;;;;;;;2.30;61.24;100733.41;4180498;28;20241;-63
2022/04/13 00:25:43;;;;;;;21.10;8.57;;;;;;;2.27;62.68;100727.47;4191371;28;20251;-63
2022/04/13 00:28:10;;;;;;;37.50;9.23;;;;;;;2.24;62.92;100725.00;4188172;28;20494;-64
2022/04/13 00:30:37;;;;;;;21.47;7.83;;;;;;;2.25;62.93;100731.97;4183853;28;21191;-65
2022/04/13 00:33:03;;;;;;;23.00;8.63;;;;;;;2.24;63.48;100727.63;4177198;28;21417;-61
2022/04/13 00:35:30;;;;;;;20.07;8.03;;;;;;;2.24;63.68;100732.88;4198859;28;20240;-64
2022/04/13 00:37:57;;;;;;;25.17;8.80;;;;;;;2.23;63.54;100733.84;4177886;28;20692;-62
2022/04/13 00:40:24;;;;;;;25.93;8.07;;;;;;;2.15;64.14;100739.47;4190525;28;25486;-61
2022/04/13 00:42:51;;;;;;;26.53;8.87;;;;;;;2.13;63.62;100740.50;4191550;28;23546;-62
2022/04/13 00:45:17;;;;;;;20.87;7.83;;;;;;;2.19;63.44;100748.91;4191912;28;22292;-63
2022/04/13 00:47:45;;;;;;;22.77;8.97;;;;;;;2.26;63.37;100731.03;4185686;28;22992;-64
2022/04/13 00:50:12;;;;;;;21.83;7.30;;;;;;;2.29;63.43;100736.09;4190004;28;22930;-61
2022/04/13 00:52:43;;;;;;;26.33;8.13;;;;;;;2.13;62.98;100735.25;4188487;28;20260;-62
2022/04/13 00:55:10;;;;;;;21.43;7.30;;;;;;;2.26;62.83;100741.53;4183191;28;20395;-61
2022/04/13 00:57:37;;;;;;;21.70;8.10;;;;;;;2.39;62.42;100736.44;4197164;28;22550;-62
2022/04/13 01:00:05;;;;;;;26.83;8.80;;;;;;;2.39;62.53;100739.06;4191773;28;20228;-63
2022/04/13 01:02:36;;;;;;;20.50;7.60;;;;;;;2.38;62.89;100740.84;4179521;28;21340;-64
2022/04/13 01:05:05;;;;;;;20.13;7.07;;;;;;;2.36;62.94;100740.09;4179298;28;20255;-63
2022/04/13 01:07:33;;;;;;;21.03;7.47;;;;;;;2.39;63.57;100739.94;4188103;28;20240;-63
2022/04/13 01:10:02;;;;;;;19.90;7.97;;;;;;;2.30;63.18;100740.44;4177662;28;20238;-63
2022/04/13 01:12:29;;;;;;;15.03;6.93;;;;;;;2.27;63.05;100743.22;4203726;28;21794;-61
2022/04/13 01:14:55;;;;;;;21.53;7.43;;;;;;;2.28;63.04;100740.50;4158462;28;20350;-65
2022/04/13 01:17:23;;;;;;;20.60;7.30;;;;;;;2.29;63.12;100744.84;4178258;28;20344;-64
2022/04/13 01:19:49;;;;;;;17.33;7.20;;;;;;;2.26;63.57;100752.03;4182045;28;20320;-62
2022/04/13 01:22:20;;;;;;;22.20;7.50;;;;;;;2.21;63.66;100748.81;4187089;28;21585;-62
2022/04/13 01:24:47;;;;;;;20.77;8.23;;;;;;;2.22;63.63;100750.50;4174906;28;20305;-64
2022/04/13 01:27:14;;;;;;;19.50;7.43;;;;;;;2.30;62.99;100749.16;4174258;28;21882;-62
2022/04/13 01:29:44;;;;;;;22.43;7.90;;;;;;;2.37;63.27;100744.41;4183564;28;20305;-62
2022/04/13 01:32:12;;;;;;;19.93;7.37;;;;;;;2.37;63.50;100739.16;4166984;28;20324;-64
2022/04/13 01:34:49;;;;;;;18.80;7.53;;;;;;;2.30;63.70;100748.31;4177331;28;20427;-66
2022/04/13 01:37:16;;;;;;;14.70;6.77;;;;;;;2.33;63.78;100743.72;4182644;28;21296;-63
2022/04/13 01:39:43;;;;;;;20.00;7.77;;;;;;;2.35;63.31;100745.44;4205995;28;20534;-62
2022/04/13 01:42:10;;;;;;;24.43;7.73;;;;;;;2.29;63.81;100751.84;4182678;28;21100;-62
2022/04/13 01:44:36;;;;;;;20.00;7.90;;;;;;;2.38;63.67;100748.72;4171496;28;20299;-63
2022/04/13 01:47:03;;;;;;;18.90;6.37;;;;;;;2.47;63.15;100753.47;4182139;28;23013;-62
2022/04/13 01:49:30;;;;;;;25.07;8.07;;;;;;;2.44;63.22;100756.28;4171189;28;20233;-63
2022/04/13 01:51:56;;;;;;;22.33;8.10;;;;;;;2.42;63.50;100757.31;4199863;28;22865;-64
2022/04/13 01:54:23;;;;;;;22.93;7.30;;;;;;;2.47;63.86;100757.88;4174484;28;20300;-65
2022/04/13 01:56:49;;;;;;;19.67;7.53;;;;;;;2.36;64.53;100763.72;4188311;28;22144;-63
2022/04/13 01:59:16;;;;;;;22.83;8.50;;;;;;;2.24;65.09;100764.41;4192113;28;20251;-64
2022/04/13 02:01:46;;;;;;;18.50;7.97;;;;;;;2.11;65.72;100765.06;4192704;28;20271;-63
2022/04/13 02:04:20;;;;;;;18.93;8.27;;;;;;;2.10;66.31;100763.34;4184893;28;21550;-64
2022/04/13 02:06:48;;;;;;;20.90;8.20;;;;;;;2.10;66.53;100768.59;4184430;28;22418;-64
2022/04/13 02:09:15;;;;;;;22.13;8.53;;;;;;;2.02;66.98;100776.06;4191238;28;20300;-63
2022/04/13 02:11:42;;;;;;;20.30;8.27;;;;;;;2.03;67.06;100776.91;4179468;28;21476;-63
2022/04/13 02:14:09;;;;;;;17.87;7.47;;;;;;;2.03;66.94;100777.75;4176906;28;21257;-63
2022/04/13 02:16:36;;;;;;;21.40;8.80;;;;;;;1.95;67.05;100773.84;4202397;28;20323;-63
2022/04/13 02:19:03;;;;;;;21.47;8.73;;;;;;;2.06;66.67;100771.47;4198633;28;20418;-62
2022/04/13 02:21:30;;;;;;;23.63;9.07;;;;;;;2.09;66.30;100769.56;4192594;28;21151;-63
2022/04/13 02:23:57;;;;;;;22.40;9.50;;;;;;;2.15;65.90;100765.72;4173976;28;20238;-64
2022/04/13 02:26:24;;;;;;;20.30;9.23;;;;;;;1.99;67.06;100770.13;4192509;28;20292;-63
2022/04/13 02:28:53;;;;;;;23.63;9.33;;;;;;;1.89;68.58;100769.75;4172592;28;20241;-63
2022/04/13 02:31:19;;;;;;;25.43;10.20;;;;;;;1.94;68.17;100778.22;4171893;28;20232;-64
2022/04/13 02:33:47;;;;;;;24.40;9.77;;;;;;;2.08;67.41;100780.13;4172598;28;20240;-66
2022/04/13 02:36:14;;;;;;;26.03;10.57;;;;;;;2.01;67.67;100779.59;4175472;28;20237;-62
2022/04/13 02:38:40;;;;;;;21.43;9.60;;;;;;;2.04;67.51;100782.09;4186598;28;21659;-64
2022/04/13 02:41:07;;;;;;;23.40;9.80;;;;;;;2.20;66.69;100795.25;4180065;28;20237;-65
2022/04/13 02:43:33;;;;;;;24.10;10.40;;;;;;;2.08;67.07;100788.88;4183652;28;20241;-64
2022/04/13 02:46:00;;;;;;;27.13;10.37;;;;;;;2.05;67.27;100790.78;4173235;28;22021;-61
2022/04/13 02:48:26;;;;;;;27.53;10.07;;;;;;;2.10;66.55;100781.72;4168918;28;20312;-64
2022/04/13 02:50:53;;;;;;;28.33;10.07;;;;;;;2.08;66.81;100786.25;4188650;28;20236;-62
2022/04/13 02:53:20;;;;;;;33.70;10.40;;;;;;;1.92;68.01;100782.75;4188503;28;22476;-63
2022/04/13 02:55:48;;;;;;;22.97;10.53;;;;;;;1.85;68.57;100781.34;4196514;28;20317;-64
2022/04/13 02:58:14;;;;;;;25.13;11.83;;;;;;;1.82;69.12;100784.97;4191290;28;20245;-63
2022/04/13 03:00:41;;;;;;;25.07;12.00;;;;;;;1.82;68.96;100776.25;4188965;28;20255;-63
2022/04/13 03:03:07;;;;;;;29.87;11.60;;;;;;;1.82;68.63;100777.09;4191992;28;20242;-63
2022/04/13 03:05:34;;;;;;;25.00;10.70;;;;;;;1.99;67.88;100775.38;4176949;28;20238;-65
2022/04/13 03:08:00;;;;;;;24.03;12.07;;;;;;;1.85;68.81;100776.09;4187751;28;20247;-63
2022/04/13 03:10:27;;;;;;;26.10;11.33;;;;;;;1.92;68.54;100776.63;4177777;28;20230;-66
2022/04/13 03:12:54;;;;;;;26.60;11.10;;;;;;;1.89;68.47;100781.09;4170254;28;20353;-66
2022/04/13 03:15:23;;;;;;;23.13;11.43;;;;;;;1.89;68.79;100775.84;4174762;28;21633;-64
2022/04/13 03:17:51;;;;;;;25.30;11.17;;;;;;;1.87;68.22;100774.25;4173886;28;20309;-64
2022/04/13 03:20:18;;;;;;;25.03;11.70;;;;;;;1.86;68.50;100775.19;4170295;28;20249;-64
2022/04/13 03:22:45;;;;;;;32.33;12.90;;;;;;;1.73;69.53;100782.81;4177357;28;20598;-67
2022/04/13 03:25:12;;;;;;;35.33;13.43;;;;;;;1.72;69.67;100790.78;4174403;28;20222;-62
2022/04/13 03:27:38;;;;;;;29.73;12.83;;;;;;;1.81;69.26;100785.06;4191975;28;20323;-65
2022/04/13 03:30:06;;;;;;;27.40;11.90;;;;;;;1.89;68.64;100782.88;4156628;28;20261;-64
2022/04/13 03:32:36;;;;;;;32.67;13.40;;;;;;;1.91;68.94;100783.66;4159450;28;20255;-64
2022/04/13 03:35:07;;;;;;;36.53;13.03;;;;;;;1.86;68.92;100783.06;4169888;28;24256;-61
2022/04/13 03:37:34;;;;;;;32.67;13.03;;;;;;;1.75;69.78;100788.00;4176817;28;21192;-63
2022/04/13 03:40:00;;;;;;;26.67;12.30;;;;;;;1.70;70.35;100780.38;4172555;28;20240;-64
2022/04/13 03:42:27;;;;;;;34.00;14.57;;;;;;;1.76;70.21;100787.09;4170110;28;20292;-64
2022/04/13 03:44:54;;;;;;;30.90;14.27;;;;;;;1.67;70.91;100789.25;4173046;28;21336;-64
2022/04/13 03:47:20;;;;;;;38.83;14.33;;;;;;;1.73;70.72;100784.59;4176324;28;20361;-64
2022/04/13 03:49:47;;;;;;;35.43;14.17;;;;;;;1.79;70.55;100781.69;4175027;28;21463;-63
2022/04/13 03:52:13;;;;;;;34.93;14.47;;;;;;;1.64;71.32;100780.72;4196862;28;20437;-63
2022/04/13 03:54:40;;;;;;;46.63;17.30;;;;;;;1.82;70.86;100789.38;4182132;28;20267;-64
2022/04/13 03:57:07;;;;;;;39.83;17.27;;;;;;;1.77;71.84;100794.03;4184209;28;20229;-65
2022/04/13 03:59:36;;;;;;;44.90;17.50;;;;;;;1.86;71.68;100796.16;4209542;28;20244;-64
2022/04/13 04:02:03;;;;;;;37.67;15.90;;;;;;;1.98;70.32;100790.28;4244457;28;20228;-64
2022/04/13 04:04:30;;;;;;;41.53;16.67;;;;;;;1.99;70.47;100797.22;4190103;28;21235;-64
2022/04/13 04:06:56;;;;;;;42.30;17.57;;;;;;;1.97;70.38;100801.72;4206445;28;20245;-64
2022/04/13 04:09:23;;;;;;;39.83;16.87;;;;;;;2.03;70.62;100806.63;4188042;28;25342;-62
2022/04/13 04:11:49;;;;;;;38.53;16.57;;;;;;;2.06;70.37;100808.22;4242729;28;22889;-64
2022/04/13 04:14:16;;;;;;;37.30;17.17;;;;;;;2.00;70.76;100813.81;4202894;28;20242;-63
2022/04/13 04:16:42;;;;;;;40.87;16.80;;;;;;;2.12;70.41;100818.41;4172397;28;20658;-64
2022/04/13 04:19:09;;;;;;;38.43;15.83;;;;;;;2.16;70.41;100819.94;4206972;28;20312;-63
2022/04/13 04:21:36;;;;;;;40.37;16.63;;;;;;;2.11;70.45;100822.81;4190259;28;21674;-64
2022/04/13 04:24:03;;;;;;;35.90;15.97;;;;;;;2.09;70.56;100822.06;4205381;28;20558;-63
2022/04/13 04:26:30;;;;;;;35.93;16.00;;;;;;;2.18;70.67;100823.34;4204232;28;20283;-63
2022/04/13 04:28:57;;;;;;;39.90;17.37;;;;;;;2.22;70.66;100826.63;4205419;28;23179;-63
2022/04/13 04:34:09;;;;;;;43.33;18.60;;;;;;;2.30;70.83;100833.19;4179270;28;20272;-65
2022/04/13 04:36:35;;;;;;;44.13;18.40;;;;;;;2.39;70.75;100826.59;4207508;28;20237;-64
2022/04/13 04:39:02;;;;;;;46.73;18.87;;;;;;;2.33;71.41;100837.44;4189457;28;21207;-63
2022/04/13 04:41:29;;;;;;;36.57;17.20;;;;;;;2.48;71.01;100830.47;4184015;28;20297;-63
2022/04/13 04:43:56;;;;;;;37.33;17.37;;;;;;;2.60;70.56;100832.47;4190817;28;22387;-62
2022/04/13 04:46:22;;;;;;;44.37;19.23;;;;;;;2.59;70.10;100840.41;4193283;28;21723;-63
2022/04/13 04:48:49;;;;;;;46.73;18.93;;;;;;;2.66;69.77;100845.25;4206478;28;20241;-64
2022/04/13 04:51:15;;;;;;;45.40;19.10;;;;;;;2.77;70.35;100849.94;4189017;28;20290;-64
2022/04/13 04:53:42;;;;;;;40.33;17.80;;;;;;;2.85;69.84;100847.69;4174465;28;20276;-64
2022/04/13 04:56:09;;;;;;;40.20;17.40;;;;;;;3.04;68.91;100838.78;4188076;28;20561;-62
2022/04/13 04:58:35;;;;;;;37.97;17.63;;;;;;;3.21;67.65;100840.44;4197652;28;21485;-62
2022/04/13 05:01:02;;;;;;;43.93;19.17;;;;;;;3.10;68.46;100841.09;4187833;28;20238;-64
2022/04/13 05:03:29;;;;;;;47.03;20.20;;;;;;;3.11;68.00;100840.13;4186784;28;20236;-62
2022/04/13 05:05:55;;;;;;;52.70;20.37;;;;;;;3.17;67.18;100837.16;4190852;28;20266;-62
2022/04/13 05:08:22;;;;;;;44.83;20.60;;;;;;;3.25;67.07;100837.56;4191608;28;20230;-63
2022/04/13 05:10:51;;;;;;;54.33;21.30;;;;;;;3.36;66.97;100840.44;4192322;28;20289;-63
2022/04/13 05:13:18;;;;;;;51.60;21.50;;;;;;;3.51;66.99;100838.72;4189092;28;20228;-62
2022/04/13 05:15:45;;;;;;;49.10;20.03;;;;;;;3.65;65.88;100839.66;4190593;28;20280;-64
2022/04/13 05:18:12;;;;;;;46.03;21.43;;;;;;;3.79;64.33;100848.44;4189397;28;21192;-64
2022/04/13 05:20:39;;;;;;;51.30;21.33;;;;;;;3.79;64.02;100847.59;4194458;28;20283;-64
2022/04/13 05:23:06;;;;;;;52.87;21.57;;;;;;;3.83;63.96;100849.09;4193782;28;20234;-64
2022/04/13 05:25:33;;;;;;;50.30;20.73;;;;;;;3.95;63.79;100848.34;4192860;28;21791;-62
2022/04/13 05:27:59;;;;;;;47.10;20.80;;;;;;;4.02;62.78;100848.84;4190015;28;20232;-64
2022/04/13 05:30:26;;;;;;;42.70;19.87;;;;;;;4.17;62.20;100852.34;4175353;28;20230;-63
2022/04/13 05:32:57;;;;;;;52.10;21.00;;;;;;;4.23;61.47;100857.22;4194237;28;20528;-65
2022/04/13 05:35:26;;;;;;;44.17;20.10;;;;;;;4.31;61.80;100865.53;4175923;28;20238;-65
2022/04/13 05:37:53;;;;;;;48.07;20.03;;;;;;;4.54;59.88;100860.59;4186931;28;20244;-62
2022/04/13 05:40:19;;;;;;;57.93;20.07;;;;;;;4.73;59.39;100863.78;4198148;28;25963;-64
2022/04/13 05:42:46;;;;;;;40.90;19.30;;;;;;;4.80;58.70;100857.19;4190645;28;22334;-64
2022/04/13 05:45:14;;;;;;;50.80;20.27;;;;;;;4.99;58.77;100859.50;4174632;28;20236;-63
2022/04/13 05:47:44;;;;;;;48.90;19.63;;;;;;;5.14;58.27;100859.44;4190001;28;20294;-63
2022/04/13 05:50:12;;;;;;;43.63;18.53;;;;;;;5.42;57.65;100869.03;4160165;28;22572;-63
2022/04/13 05:52:39;;;;;;;44.87;19.63;;;;;;;5.60;56.49;100862.53;4182370;28;20241;-64
2022/04/13 05:55:07;;;;;;;48.73;20.07;;;;;;;5.61;56.73;100863.38;4197647;28;20239;-65
2022/04/13 05:57:34;;;;;;;38.47;18.37;;;;;;;5.70;56.31;100868.88;4178444;28;20238;-64
2022/04/13 06:00:00;;;;;;;48.07;18.77;;;;;;;5.75;56.54;100867.72;4182480;28;20229;-68
2022/04/13 06:02:27;;;;;;;45.17;18.03;;;;;;;5.90;56.39;100872.84;4185367;28;20234;-63
2022/04/13 06:04:54;;;;;;;52.93;18.17;;;;;;;6.05;55.66;100878.06;4169852;28;20233;-62
2022/04/13 06:07:21;;;;;;;45.13;17.30;;;;;;;6.18;54.93;100881.56;4188413;28;20303;-65
2022/04/13 06:09:47;;;;;;;45.53;17.43;;;;;;;6.34;54.37;100884.81;4195953;28;22622;-67
2022/04/13 06:12:21;;;;;;;44.03;16.70;;;;;;;6.57;53.60;100878.88;4179601;28;22239;-67
2022/04/13 06:14:47;;;;;;;46.57;18.03;;;;;;;6.76;51.47;100885.38;4181754;28;20284;-67
2022/04/13 06:17:14;;;;;;;41.87;16.80;;;;;;;6.92;51.01;100881.63;4177952;28;20224;-66
2022/04/13 06:19:40;;;;;;;38.00;16.90;;;;;;;7.07;50.51;100888.47;4194843;28;20253;-67
2022/04/13 06:22:07;;;;;;;49.30;16.70;;;;;;;7.02;49.89;100892.41;4191288;28;20315;-64
2022/04/13 06:24:33;;;;;;;38.70;17.00;;;;;;;7.10;50.18;100903.28;4220843;28;20695;-66
2022/04/13 06:27:00;;;;;;;39.70;16.40;;;;;;;7.21;50.67;100903.38;4212900;28;20815;-64
2022/04/13 06:29:31;;;;;;;40.30;15.13;;;;;;;7.35;49.06;100903.19;4189633;28;20238;-65
2022/04/13 06:31:58;;;;;;;38.13;14.70;;;;;;;7.56;48.04;100908.72;4196962;28;21293;-65
2022/04/13 06:34:24;;;;;;;39.33;14.30;;;;;;;7.77;46.66;100913.34;4207458;28;25468;-65
2022/04/13 06:36:52;;;;;;;37.23;14.77;;;;;;;7.92;46.37;100917.50;4187142;28;20248;-65
2022/04/13 06:39:19;;;;;;;36.23;14.43;;;;;;;8.10;46.36;100912.63;4170793;28;20240;-65
2022/04/13 06:41:45;;;;;;;38.03;14.43;;;;;;;8.27;45.53;100921.09;4202338;28;20718;-66
2022/04/13 06:44:12;;;;;;;36.97;12.63;;;;;;;8.38;44.18;100919.28;4212474;28;20229;-64
2022/04/13 06:46:38;;;;;;;36.67;13.07;;;;;;;8.50;42.93;100927.25;4212354;28;20388;-65
2022/04/13 06:49:05;;;;;;;37.90;12.20;;;;;;;9.11;41.85;100938.38;4197361;28;22110;-64
2022/04/13 06:51:33;;;;;;;37.13;13.33;;;;;;;9.73;39.75;100935.03;4212020;28;20232;-66
2022/04/13 06:54:00;;;;;;;36.23;12.07;;;;;;;10.42;38.28;100948.81;4216476;28;20282;-66
2022/04/13 06:56:26;;;;;;;29.13;11.53;;;;;;;13.18;33.86;100969.03;4198386;28;20283;-66
2022/04/13 06:58:53;;;;;;;31.40;11.40;;;;;;;15.81;27.96;100983.22;4206584;28;21872;-70
2022/04/13 07:01:19;;;;;;;26.33;10.70;;;;;;;18.20;24.63;100996.75;4206178;28;20245;-69
2022/04/13 07:03:46;;;;;;;25.60;10.37;;;;;;;19.16;22.00;100997.81;4220146;28;22870;-69
2022/04/13 07:06:13;;;;;;;25.43;9.87;;;;;;;20.37;20.70;101007.03;4210550;28;20291;-68
2022/04/13 07:09:00;;;;;;;26.10;10.13;;;;;;;18.81;21.42;101000.25;4190917;28;20238;-69
2022/04/13 07:11:26;;;;;;;23.33;8.47;;;;;;;18.64;21.40;100993.31;4184371;28;21248;-69
2022/04/13 07:13:55;;;;;;;24.57;9.03;;;;;;;20.42;19.93;101007.28;4190365;28;21393;-68
2022/04/13 07:16:24;;;;;;;20.07;8.10;;;;;;;21.38;18.26;101009.34;4208040;28;25259;-69
2022/04/13 07:18:56;;;;;;;20.47;8.20;;;;;;;21.40;17.84;101007.31;4183685;28;20247;-69
2022/04/13 07:21:22;;;;;;;19.27;7.73;;;;;;;20.78;19.44;101006.31;4197526;28;20243;-69
2022/04/13 07:24:10;;;;;;;20.67;7.63;;;;;;;22.66;16.39;101016.66;4208335;28;21568;-70
2022/04/13 07:26:38;;;;;;;17.03;7.63;;;;;;;22.18;17.12;101014.97;4198413;28;20833;-71
2022/04/13 07:29:05;;;;;;;17.17;8.37;;;;;;;23.57;15.84;101027.47;4229317;28;20284;-69
2022/04/13 07:31:32;;;;;;;20.83;7.50;;;;;;;24.72;14.87;101037.41;4177296;28;20350;-68
2022/04/13 07:33:58;;;;;;;13.30;7.20;;;;;;;23.42;14.83;101026.94;4212630;28;21432;-71
2022/04/13 07:36:25;;;;;;;16.37;8.00;;;;;;;20.74;17.71;101017.72;4193417;28;20283;-70
2022/04/13 07:38:52;;;;;;;17.93;8.43;;;;;;;21.70;17.00;101006.97;4206264;28;20311;-69
2022/04/13 07:41:19;;;;;;;19.57;8.07;;;;;;;22.74;15.97;101013.75;4167273;28;21853;-67
2022/04/13 07:43:45;;;;;;;14.60;7.37;;;;;;;23.39;15.38;101016.53;4197310;28;20293;-69
2022/04/13 07:46:12;;;;;;;16.37;7.70;;;;;;;22.14;16.47;101008.28;4190169;28;25590;-70
2022/04/13 07:48:39;;;;;;;17.87;7.40;;;;;;;22.42;15.93;101010.00;4193372;28;20245;-70
2022/04/13 07:51:05;;;;;;;14.23;6.90;;;;;;;22.64;15.97;101014.19;4186759;28;22278;-71
2022/04/13 07:53:32;;;;;;;14.90;7.13;;;;;;;23.16;16.28;101019.72;4212984;28;20253;-70
2022/04/13 07:55:59;;;;;;;18.23;7.17;;;;;;;24.55;14.56;101030.88;4248156;28;21538;-70
2022/04/13 07:58:28;;;;;;;16.63;6.73;;;;;;;21.87;15.95;101013.69;4264524;28;20560;-72
2022/04/13 08:00:55;;;;;;;13.53;6.40;;;;;;;21.46;16.86;101006.47;4240735;28;20351;-68
2022/04/13 08:03:22;;;;;;;17.27;6.73;;;;;;;21.36;16.91;101000.59;4235524;28;20247;-68
2022/04/13 08:06:00;;;;;;;14.87;6.60;;;;;;;20.23;18.06;100992.56;4274657;28;21902;-72
2022/04/13 08:08:27;;;;;;;26.80;13.53;;;;;;;19.02;19.45;100990.56;4247177;28;20747;-69
2022/04/13 08:10:55;;;;;;;20.53;7.47;;;;;;;18.59;20.37;100987.63;4320497;28;23096;-67
2022/04/13 08:13:22;;;;;;;24.47;6.47;;;;;;;18.17;20.83;100981.81;4327828;28;20243;-69
2022/04/13 08:16:09;;;;;;;20.10;6.60;;;;;;;17.07;22.83;100973.88;4332469;28;20232;-69
2022/04/13 08:18:56;;;;;;;12.77;5.50;;;;;;;15.85;23.31;100974.84;4294510;28;20223;-72
2022/04/13 08:21:23;;;;;;;14.70;5.60;;;;;;;15.69;23.51;100970.28;4272283;28;20622;-70
2022/04/13 08:23:50;;;;;;;12.20;5.10;;;;;;;15.00;24.15;100959.66;4272056;28;20240;-69
2022/04/13 08:26:17;;;;;;;11.93;5.03;;;;;;;14.12;24.99;100952.59;4265333;28;21671;-67
2022/04/13 08:28:43;;;;;;;15.13;4.87;;;;;;;13.90;25.34;100947.72;4226171;28;20295;-67
2022/04/13 08:31:10;;;;;;;18.10;6.23;;;;;;;14.10;25.31;100951.06;4201398;28;20258;-70
2022/04/13 08:33:37;;;;;;;10.53;5.27;;;;;;;14.56;25.68;100951.72;4183222;28;20385;-70
2022/04/13 08:36:04;;;;;;;12.63;4.10;;;;;;;15.05;22.92;100961.88;4204751;28;21829;-69
2022/04/13 08:38:30;;;;;;;9.03;4.10;;;;;;;14.94;23.61;100953.13;4223865;28;22391;-70
2022/04/13 08:40:59;;;;;;;10.47;4.03;;;;;;;14.16;24.33;100953.09;4208810;28;20837;-72
2022/04/13 08:43:48;;;;;;;11.20;3.63;;;;;;;13.50;25.43;100946.34;4194131;28;20236;-69
2022/04/13 08:46:21;;;;;;;10.70;3.90;;;;;;;13.89;25.17;100948.72;4215263;28;21988;-69
2022/04/13 08:48:51;;;;;;;11.53;4.30;;;;;;;14.41;24.84;100948.78;4229822;28;20871;-71
2022/04/13 08:51:36;;;;;;;12.87;5.27;;;;;;;14.57;25.02;100948.06;4238938;28;20236;-70
2022/04/13 08:54:18;;;;;;;11.30;5.23;;;;;;;14.79;25.12;100954.72;4236766;28;20238;-70
2022/04/13 08:56:47;;;;;;;10.10;4.20;;;;;;;14.56;25.06;100952.59;4193060;28;21230;-69
2022/04/13 09:00:02;;;;;;;7.90;4.40;;;;;;;14.99;23.96;100955.31;4206029;28;22744;-70
2022/04/13 09:02:50;;;;;;;11.47;4.83;;;;;;;14.25;24.81;100952.16;4182060;28;21806;-69
2022/04/13 09:05:19;;;;;;;12.73;4.83;;;;;;;14.21;25.61;100956.19;4185843;28;23638;-69
2022/04/13 09:07:49;;;;;;;13.93;4.77;;;;;;;14.20;24.75;100953.66;4208472;28;20225;-67
2022/04/13 09:10:19;;;;;;;12.80;4.53;;;;;;;14.33;24.57;100954.91;4217870;28;22445;-68
2022/04/13 09:12:47;;;;;;;9.43;4.33;;;;;;;14.33;24.58;100954.91;4260276;28;20592;-62
2022/04/13 09:15:14;;;;;;;12.67;5.47;;;;;;;14.36;25.81;100953.75;4276956;28;20285;-62
2022/04/13 09:17:40;;;;;;;15.93;5.13;;;;;;;13.76;26.77;100941.06;4198580;28;20308;-65
2022/04/13 09:20:08;;;;;;;12.47;4.93;;;;;;;13.78;26.17;100936.41;4204989;28;20228;-63
2022/04/13 09:22:36;;;;;;;12.97;5.40;;;;;;;13.62;26.31;100931.75;4195507;28;20731;-65
2022/04/13 09:25:04;;;;;;;12.40;4.97;;;;;;;13.02;26.79;100918.88;4210381;28;20334;-64
2022/04/13 09:27:32;;;;;;;14.13;5.33;;;;;;;13.19;27.32;100927.09;4190237;28;20232;-63
2022/04/13 09:29:58;;;;;;;11.77;5.07;;;;;;;13.34;25.90;100925.59;4190916;28;20217;-64
2022/04/13 09:32:25;;;;;;;13.83;5.10;;;;;;;13.52;25.96;100925.63;4188363;28;21861;-64
2022/04/13 09:34:53;;;;;;;11.53;4.80;;;;;;;13.16;26.78;100919.34;4194972;28;21346;-64
2022/04/13 09:37:20;;;;;;;11.30;5.03;;;;;;;13.08;27.01;100920.94;4169124;28;20275;-68
2022/04/13 09:39:46;;;;;;;13.50;5.17;;;;;;;13.17;27.16;100913.88;4190329;28;20245;-68
2022/04/13 09:42:13;;;;;;;17.00;5.20;;;;;;;13.50;27.80;100912.41;4164621;28;20234;-63
2022/04/13 09:44:41;;;;;;;13.57;5.67;;;;;;;13.66;27.14;100906.38;4176117;28;26454;-64
2022/04/13 09:47:10;;;;;;;10.43;5.13;;;;;;;13.51;26.56;100911.44;4200009;28;21306;-63
2022/04/13 09:49:53;;;;;;;10.23;4.53;;;;;;;13.26;26.00;100904.13;4201899;28;21002;-64
2022/04/13 09:52:33;;;;;;;13.80;4.70;;;;;;;13.27;26.42;100897.78;4188553;28;21882;-65
2022/04/13 09:54:59;;;;;;;10.80;4.70;;;;;;;13.09;26.82;100895.09;4174022;28;22205;-62
2022/04/13 09:57:26;;;;;;;12.90;4.87;;;;;;;13.15;27.74;100888.28;4237734;28;20774;-61
2022/04/13 09:59:58;;;;;;;13.83;5.27;;;;;;;12.99;28.00;100868.41;4188482;28;20239;-66
2022/04/13 10:02:38;;;;;;;10.47;5.17;;;;;;;13.00;26.64;100896.81;4189806;28;20224;-63
2022/04/13 10:05:07;;;;;;;17.80;5.40;;;;;;;13.02;27.84;100888.66;4196729;28;22087;-66
2022/04/13 10:07:35;;;;;;;13.73;5.10;;;;;;;13.21;27.27;100887.69;4199384;28;26641;-60
2022/04/13 10:10:03;;;;;;;13.83;5.17;;;;;;;13.29;27.69;100875.28;4205320;28;20245;-66
2022/04/13 10:12:46;;;;;;;16.13;4.90;;;;;;;13.52;26.97;100869.47;4194963;28;20225;-63
2022/04/13 10:15:13;;;;;;;13.50;4.97;;;;;;;13.34;27.52;100882.84;4172880;28;22203;-62
2022/04/13 10:17:40;;;;;;;10.23;5.03;;;;;;;12.83;27.17;100874.44;4194997;28;20520;-65
2022/04/13 10:20:07;;;;;;;12.00;4.70;;;;;;;12.96;27.63;100873.22;4177335;28;21770;-65
2022/04/13 10:22:34;;;;;;;10.57;4.67;;;;;;;12.80;28.38;100857.84;4189155;28;20264;-63
2022/04/13 10:25:16;;;;;;;12.70;4.63;;;;;;;13.18;27.36;100872.81;4188974;28;20248;-62
2022/04/13 10:27:56;;;;;;;10.07;4.80;;;;;;;13.35;26.75;100865.81;4192688;28;20228;-65
2022/04/13 10:30:50;;;;;;;17.13;5.33;;;;;;;13.35;26.34;100863.16;4199174;28;22154;-63
2022/04/13 10:33:17;;;;;;;12.93;5.00;;;;;;;13.28;26.31;100854.91;4175716;28;23053;-64
2022/04/13 10:35:44;;;;;;;11.03;4.50;;;;;;;13.61;27.27;100865.06;4184945;28;22032;-63
2022/04/13 10:38:14;;;;;;;11.67;4.80;;;;;;;13.67;25.62;100865.28;4191364;28;22684;-63
2022/04/13 10:40:42;;;;;;;13.17;4.57;;;;;;;13.78;25.91;100874.88;4186708;28;21350;-62
2022/04/13 10:43:11;;;;;;;10.50;4.68;;;;;;;13.69;25.21;100865.09;4194540;28;20431;-62
2022/04/13 10:45:45;;;;;;;9.03;4.73;;;;;;;13.93;26.74;100856.44;4213483;28;20233;-63
2022/04/13 10:48:19;;;;;;;9.33;4.13;;;;;;;14.15;23.54;100869.28;4189037;28;20328;-62
2022/04/13 10:50:54;;;;;;;8.90;3.80;;;;;;;14.07;23.60;100852.34;4204830;28;20888;-63
2022/04/13 10:53:38;;;;;;;10.80;3.97;;;;;;;14.51;23.95;100861.13;4189218;28;22554;-64
2022/04/13 10:56:06;;;;;;;13.27;4.23;;;;;;;13.95;24.11;100849.09;4184862;28;20258;-64
2022/04/13 10:58:42;;;;;;;10.37;4.83;;;;;;;13.39;25.50;100853.84;4180882;28;23542;-63
2022/04/13 11:01:15;;;;;;;11.23;4.60;;;;;;;13.50;25.53;100856.25;4197996;28;20228;-63
2022/04/13 11:03:42;;;;;;;12.97;4.20;;;;;;;13.55;25.60;100866.50;4231147;28;20235;-65
2022/04/13 11:06:10;;;;;;;9.77;5.10;;;;;;;13.82;25.59;100849.50;4282970;28;21340;-62
2022/04/13 11:08:52;;;;;;;10.83;4.30;;;;;;;14.36;26.19;100852.03;4210414;28;20937;-65
2022/04/13 11:11:21;;;;;;;10.00;4.70;;;;;;;14.77;23.57;100866.47;4190092;28;22013;-61
2022/04/13 11:13:49;;;;;;;10.10;4.40;;;;;;;15.01;24.31;100855.97;4210694;28;20857;-66
2022/04/13 11:16:22;;;;;;;11.00;4.33;;;;;;;15.28;23.26;100863.75;4193334;28;21785;-63
2022/04/13 11:19:08;;;;;;;14.17;5.03;;;;;;;14.81;23.11;100871.50;4204786;28;20244;-64
2022/04/13 11:21:55;;;;;;;9.00;4.60;;;;;;;14.86;23.67;100863.81;4206396;28;20800;-65
2022/04/13 11:24:35;;;;;;;10.37;4.77;;;;;;;14.77;23.50;100857.56;4257413;28;20241;-62
2022/04/13 11:27:03;;;;;;;10.60;4.60;;;;;;;14.74;24.28;100856.06;4222622;28;20233;-65
2022/04/13 11:29:37;;;;;;;16.10;5.07;;;;;;;14.90;23.84;100852.59;4230624;28;20997;-62